createdAt,value
2023-01-13T00:00:49.926Z,100110.41
2023-01-13T00:01:53.117Z,100095.31
2023-01-13T00:02:55.242Z,100101.47
2023-01-13T00:03:58.435Z,100099.78
2023-01-13T00:05:00.172Z,100108.44
2023-01-13T00:06:03.164Z,100092.66
2023-01-13T00:07:04.956Z,100098.81
2023-01-13T00:08:07.752Z,100094.47
2023-01-13T00:09:10.746Z,100109.44
2023-01-13T00:10:13.481Z,100098.09
2023-01-13T00:11:15.815Z,100091.13
2023-01-13T00:12:18.562Z,100090.41
2023-01-13T00:13:26.549Z,100080.81
2023-01-13T00:14:30.185Z,100081.09
2023-01-13T00:15:32.357Z,100086.66
2023-01-13T00:16:35.087Z,100079.69
2023-01-13T00:17:36.813Z,100078.97
2023-01-13T00:18:42.150Z,100082.78
2023-01-13T00:19:44.689Z,100081.25
2023-01-13T00:20:47.323Z,100076.91
2023-01-13T00:21:48.972Z,100071.00
2023-01-13T00:22:51.631Z,100075.47
2023-01-13T00:23:55.080Z,100069.50
2023-01-13T00:25:01.513Z,100087.22
2023-01-13T00:26:06.331Z,100078.41
2023-01-13T00:27:09.306Z,100075.78
2023-01-13T00:28:11.120Z,100077.44
2023-01-13T00:29:13.880Z,100076.47
2023-01-13T00:30:15.719Z,100071.00
2023-01-13T00:31:20.128Z,100069.19
2023-01-13T00:32:21.826Z,100065.59
2023-01-13T00:33:24.762Z,100076.06
2023-01-13T00:34:27.765Z,100088.38
2023-01-13T00:35:29.885Z,100075.94
2023-01-13T00:36:32.844Z,100085.59
2023-01-13T00:37:36.056Z,100085.59
2023-01-13T00:38:39.381Z,100097.84
2023-01-13T00:39:41.179Z,100097.84
2023-01-13T00:40:45.313Z,100087.25
2023-01-13T00:42:07.001Z,100088.91
2023-01-13T00:43:24.239Z,100085.59
2023-01-13T00:44:26.944Z,100085.59
2023-01-13T00:45:28.575Z,100084.59
2023-01-13T00:46:31.233Z,100090.91
2023-01-13T00:47:32.959Z,100098.03
2023-01-13T00:48:36.348Z,100090.06
2023-01-13T00:49:38.972Z,100083.91
2023-01-13T00:50:41.032Z,100078.59
2023-01-13T00:51:45.261Z,100084.75
2023-01-13T00:52:46.903Z,100074.97
2023-01-13T00:53:51.931Z,100073.28
2023-01-13T00:54:53.774Z,100064.34
2023-01-13T00:56:02.241Z,100064.34
2023-01-13T00:57:04.850Z,100069.66
2023-01-13T00:58:07.452Z,100072.44
2023-01-13T00:59:11.417Z,100082.22
2023-01-13T01:00:14.605Z,100087.53
2023-01-13T01:01:18.248Z,100093.69
2023-01-13T01:02:21.069Z,100098.31
2023-01-13T01:03:22.789Z,100092.16
2023-01-13T01:04:25.741Z,100095.66
2023-01-13T01:05:27.662Z,100087.69
2023-01-13T01:06:30.510Z,100082.38
2023-01-13T01:07:32.158Z,100085.03
2023-01-13T01:08:35.381Z,100079.72
2023-01-13T01:09:39.370Z,100077.06
2023-01-13T01:10:41.978Z,100081.38
2023-01-13T01:11:45.121Z,100070.91
2023-01-13T01:12:47.721Z,100055.94
2023-01-13T01:13:52.106Z,100045.22
2023-01-13T01:14:55.354Z,100045.31
2023-01-13T01:15:57.022Z,100047.97
2023-01-13T01:16:59.704Z,100048.94
2023-01-13T01:18:01.360Z,100066.53
2023-01-13T01:19:05.115Z,100071.84
2023-01-13T01:20:08.021Z,100071.84
2023-01-13T01:21:11.839Z,100083.44
2023-01-13T01:22:14.484Z,100083.44
2023-01-13T01:23:16.185Z,100092.41
2023-01-13T01:24:18.930Z,100092.41
2023-01-13T01:25:20.701Z,100084.44
2023-01-13T01:26:26.906Z,100089.75
2023-01-13T01:27:30.089Z,100082.75
2023-01-13T01:28:33.389Z,100099.53
2023-01-13T01:29:35.068Z,100097.72
2023-01-13T01:30:40.116Z,100086.38
2023-01-13T01:31:41.856Z,100096.03
2023-01-13T01:32:44.560Z,100082.75
2023-01-13T01:33:47.576Z,100069.50
2023-01-13T01:34:51.739Z,100067.69
2023-01-13T01:35:53.549Z,100072.16
2023-01-13T01:36:56.191Z,100081.06
2023-01-13T01:37:57.874Z,100082.75
2023-01-13T01:39:00.959Z,100073.94
2023-01-13T01:40:03.643Z,100059.03
2023-01-13T01:41:06.054Z,100071.59
2023-01-13T01:42:34.050Z,100070.75
2023-01-13T01:44:06.974Z,100060.28
2023-01-13T01:45:18.121Z,100061.25
2023-01-13T01:46:19.841Z,100088.63
2023-01-13T01:47:25.637Z,100088.63
2023-01-13T01:48:30.320Z,100090.63
2023-01-13T01:49:36.304Z,100098.69
2023-01-13T01:50:39.465Z,100098.00
2023-01-13T01:51:47.259Z,100109.72
2023-01-13T01:52:53.882Z,100107.34
2023-01-13T01:53:57.996Z,100115.47
2023-01-13T01:55:02.894Z,100108.47
2023-01-13T01:56:06.143Z,100117.41
2023-01-13T01:57:11.188Z,100100.69
2023-01-13T01:58:18.632Z,100109.59
2023-01-13T01:59:21.861Z,100112.38
2023-01-13T02:00:26.469Z,100110.56
2023-01-13T02:01:28.431Z,100107.22
2023-01-13T02:02:31.992Z,100101.22
2023-01-13T02:03:37.342Z,100088.94
2023-01-13T02:04:50.365Z,100090.88
2023-01-13T02:05:53.988Z,100089.50
2023-01-13T02:06:56.795Z,100099.41
2023-01-13T02:08:00.727Z,100100.66
2023-01-13T02:09:02.717Z,100111.53
2023-01-13T02:10:08.213Z,100104.59
2023-01-13T02:11:43.634Z,100111.13
2023-01-13T02:12:48.432Z,100104.44
2023-01-13T02:13:50.079Z,100099.41
2023-01-13T02:14:54.054Z,100101.38
2023-01-13T02:16:03.742Z,100105.09
2023-01-13T02:17:26.090Z,100096.34
2023-01-13T02:18:47.143Z,100092.00
2023-01-13T02:20:18.015Z,100099.13
2023-01-13T02:22:08.515Z,100088.66
2023-01-13T02:24:10.241Z,100096.63
2023-01-13T02:25:36.551Z,100095.91
2023-01-13T02:27:11.122Z,100106.78
2023-01-13T02:29:00.473Z,100099.09
2023-01-13T02:30:33.920Z,100101.34
2023-01-13T02:31:43.377Z,100106.88
2023-01-13T02:32:56.962Z,100104.50
2023-01-13T02:34:08.297Z,100104.78
2023-01-13T02:35:18.019Z,100097.13
2023-01-13T02:36:38.091Z,100106.19
2023-01-13T02:37:44.044Z,100097.81
2023-01-13T02:38:52.725Z,100100.59
2023-01-13T02:39:59.653Z,100102.53
2023-01-13T02:41:27.741Z,100096.53
2023-01-13T02:42:52.032Z,100103.78
2023-01-13T02:44:07.335Z,100104.06
2023-01-13T02:45:14.392Z,100096.38
2023-01-13T02:46:21.694Z,100094.69
2023-01-13T02:47:26.173Z,100102.75
2023-01-13T02:48:30.839Z,100102.91
2023-01-13T02:49:38.544Z,100100.53
2023-01-13T02:50:45.069Z,100093.69
2023-01-13T02:51:49.493Z,100092.00
2023-01-13T02:52:54.977Z,100090.47
2023-01-13T02:54:02.375Z,100091.44
2023-01-13T02:55:08.141Z,100091.56
2023-01-13T02:56:12.106Z,100093.41
2023-01-13T02:57:17.286Z,100087.25
2023-01-13T02:58:25.161Z,100085.72
2023-01-13T02:59:28.306Z,100084.03
2023-01-13T03:00:34.660Z,100091.28
2023-01-13T03:01:36.890Z,100092.25
2023-01-13T03:02:39.525Z,100093.22
2023-01-13T03:03:41.039Z,100095.16
2023-01-13T03:04:48.672Z,100092.53
2023-01-13T03:05:54.701Z,100086.50
2023-01-13T03:07:05.619Z,100089.28
2023-01-13T03:08:17.683Z,100092.06
2023-01-13T03:09:24.524Z,100090.41
2023-01-13T03:10:36.272Z,100092.34
2023-01-13T03:11:46.035Z,100087.03
2023-01-13T03:12:58.684Z,100084.66
2023-01-13T03:14:19.883Z,100079.34
2023-01-13T03:15:28.333Z,100083.97
2023-01-13T03:16:41.624Z,100084.94
2023-01-13T03:17:49.561Z,100086.72
2023-01-13T03:18:56.744Z,100084.22
2023-01-13T03:20:07.222Z,100077.22
2023-01-13T03:21:15.908Z,100072.88
2023-01-13T03:22:22.926Z,100072.03
2023-01-13T03:23:32.316Z,100067.75
2023-01-13T03:24:38.975Z,100062.56
2023-01-13T03:25:49.145Z,100065.22
2023-01-13T03:26:57.754Z,100070.50
2023-01-13T03:28:03.903Z,100076.78
2023-01-13T03:29:14.486Z,100078.72
2023-01-13T03:30:20.207Z,100075.22
2023-01-13T03:31:28.618Z,100078.84
2023-01-13T03:32:35.568Z,100078.84
2023-01-13T03:33:45.286Z,100082.47
2023-01-13T03:34:50.835Z,100088.72
2023-01-13T03:35:57.069Z,100082.59
2023-01-13T03:37:03.557Z,100087.88
2023-01-13T03:38:11.694Z,100078.28
2023-01-13T03:39:19.935Z,100080.22
2023-01-13T03:40:27.283Z,100080.22
2023-01-13T03:41:34.657Z,100086.50
2023-01-13T03:42:40.077Z,100083.00
2023-01-13T03:44:07.232Z,100087.44
2023-01-13T03:45:14.697Z,100085.75
2023-01-13T03:46:32.840Z,100086.03
2023-01-13T03:47:41.096Z,100087.00
2023-01-13T03:48:45.683Z,100078.34
2023-01-13T03:49:55.217Z,100084.59
2023-01-13T03:51:04.926Z,100082.94
2023-01-13T03:52:10.785Z,100083.78
2023-01-13T03:53:19.009Z,100082.94
2023-01-13T03:54:25.092Z,100082.22
2023-01-13T03:55:32.578Z,100090.16
2023-01-13T03:56:39.273Z,100084.03
2023-01-13T03:57:48.227Z,100084.19
2023-01-13T03:58:53.023Z,100082.38
2023-01-13T03:59:59.974Z,100071.78
2023-01-13T04:01:07.294Z,100085.97
2023-01-13T04:02:15.365Z,100082.50
2023-01-13T04:03:23.846Z,100081.66
2023-01-13T04:04:32.290Z,100078.19
2023-01-13T04:05:37.924Z,100088.78
2023-01-13T04:06:48.292Z,100079.16
2023-01-13T04:08:00.659Z,100085.41
2023-01-13T04:09:09.374Z,100084.56
2023-01-13T04:10:12.957Z,100088.19
2023-01-13T04:11:21.888Z,100087.34
2023-01-13T04:12:48.994Z,100092.63
2023-01-13T04:13:52.682Z,100086.50
2023-01-13T04:14:56.975Z,100086.50
2023-01-13T04:16:00.371Z,100088.31
2023-01-13T04:17:02.931Z,100092.63
2023-01-13T04:18:13.092Z,100094.28
2023-01-13T04:19:17.237Z,100088.88
2023-01-13T04:20:19.152Z,100089.59
2023-01-13T04:21:22.004Z,100086.81
2023-01-13T04:22:26.489Z,100091.84
2023-01-13T04:23:29.702Z,100074.88
2023-01-13T04:24:31.228Z,100087.97
2023-01-13T04:25:34.105Z,100082.53
2023-01-13T04:26:35.826Z,100077.81
2023-01-13T04:27:38.425Z,100088.28
2023-01-13T04:28:40.717Z,100082.00
2023-01-13T04:29:43.187Z,100081.88
2023-01-13T04:30:45.073Z,100081.88
2023-01-13T04:31:47.845Z,100076.72
2023-01-13T04:32:49.346Z,100080.22
2023-01-13T04:33:51.797Z,100086.34
2023-01-13T04:34:54.658Z,100081.06
2023-01-13T04:35:57.131Z,100085.50
2023-01-13T04:36:59.600Z,100087.19
2023-01-13T04:38:01.595Z,100094.16
2023-01-13T04:39:04.350Z,100086.06
2023-01-13T04:40:07.463Z,100086.91
2023-01-13T04:41:09.949Z,100095.56
2023-01-13T04:42:12.770Z,100082.31
2023-01-13T04:43:16.053Z,100083.03
2023-01-13T04:44:17.572Z,100096.13
2023-01-13T04:45:20.287Z,100086.38
2023-01-13T04:46:21.895Z,100079.16
2023-01-13T04:47:24.703Z,100086.13
2023-01-13T04:48:26.508Z,100083.34
2023-01-13T04:49:29.049Z,100093.94
2023-01-13T04:50:31.956Z,100084.09
2023-01-13T04:51:34.731Z,100083.13
2023-01-13T04:52:36.315Z,100091.91
2023-01-13T04:53:38.807Z,100098.75
2023-01-13T04:54:40.331Z,100101.28
2023-01-13T04:55:44.221Z,100100.28
2023-01-13T04:56:45.920Z,100109.06
2023-01-13T04:57:48.426Z,100106.31
2023-01-13T04:58:49.923Z,100113.25
2023-01-13T04:59:52.549Z,100111.31
2023-01-13T05:00:55.367Z,100104.34
2023-01-13T05:01:57.447Z,100093.75
2023-01-13T05:03:00.348Z,100091.09
2023-01-13T05:04:01.953Z,100094.59
2023-01-13T05:05:04.630Z,100073.41
2023-01-13T05:06:07.749Z,100061.13
2023-01-13T05:07:10.236Z,100068.13
2023-01-13T05:08:12.729Z,100072.56
2023-01-13T05:09:15.582Z,100066.56
2023-01-13T05:10:18.299Z,100072.69
2023-01-13T05:11:38.546Z,100076.44
2023-01-13T05:12:57.984Z,100077.28
2023-01-13T05:14:17.879Z,100074.78
2023-01-13T05:15:38.262Z,100077.69
2023-01-13T05:16:58.676Z,100079.50
2023-01-13T05:18:11.723Z,100084.22
2023-01-13T05:19:13.694Z,100084.31
2023-01-13T05:20:16.421Z,100085.44
2023-01-13T05:21:37.866Z,100083.03
2023-01-13T05:22:58.301Z,100075.38
2023-01-13T05:24:18.501Z,100080.22
2023-01-13T05:25:25.160Z,100091.78
2023-01-13T05:26:26.727Z,100093.69
2023-01-13T05:27:29.745Z,100085.75
2023-01-13T05:28:32.231Z,100078.81
2023-01-13T05:29:34.777Z,100077.13
2023-01-13T05:30:38.106Z,100077.13
2023-01-13T05:32:01.485Z,100078.09
2023-01-13T05:33:22.628Z,100082.69
2023-01-13T05:34:42.549Z,100090.75
2023-01-13T05:36:05.697Z,100091.59
2023-01-13T05:37:28.959Z,100092.44
2023-01-13T05:38:52.003Z,100095.91
2023-01-13T05:40:32.872Z,100100.38
2023-01-13T05:42:11.917Z,100091.47
2023-01-13T05:43:33.111Z,100095.06
2023-01-13T05:44:54.215Z,100091.59
2023-01-13T05:46:17.584Z,100100.47
2023-01-13T05:47:37.659Z,100095.34
2023-01-13T05:48:59.784Z,100102.44
2023-01-13T05:50:19.844Z,100104.38
2023-01-13T05:51:41.015Z,100094.75
2023-01-13T05:53:02.426Z,100104.66
2023-01-13T05:54:23.864Z,100102.97
2023-01-13T05:55:45.989Z,100099.59
2023-01-13T05:57:06.704Z,100102.38
2023-01-13T05:58:28.949Z,100103.22
2023-01-13T05:59:50.030Z,100104.88
2023-01-13T06:01:11.419Z,100098.50
2023-01-13T06:02:31.901Z,100101.00
2023-01-13T06:03:53.044Z,100108.69
2023-01-13T06:05:13.038Z,100103.28
2023-01-13T06:06:34.273Z,100107.63
2023-01-13T06:07:57.612Z,100110.13
2023-01-13T06:09:20.959Z,100105.50
2023-01-13T06:10:40.963Z,100108.03
2023-01-13T06:12:02.221Z,100116.81
2023-01-13T06:13:25.139Z,100118.53
2023-01-13T06:14:45.124Z,100115.88
2023-01-13T06:16:06.675Z,100125.47
2023-01-13T06:17:27.837Z,100122.81
2023-01-13T06:18:48.777Z,100128.13
2023-01-13T06:20:10.411Z,100129.09
2023-01-13T06:21:33.218Z,100123.81
2023-01-13T06:22:55.223Z,100128.38
2023-01-13T06:24:15.489Z,100130.31
2023-01-13T06:25:42.716Z,100133.22
2023-01-13T06:27:05.722Z,100132.50
2023-01-13T06:28:27.163Z,100132.75
2023-01-13T06:29:47.747Z,100129.44
2023-01-13T06:31:11.119Z,100126.19
2023-01-13T06:32:35.946Z,100130.78
2023-01-13T06:34:01.890Z,100131.84
2023-01-13T06:35:26.663Z,100122.38
2023-01-13T06:36:53.159Z,100134.06
2023-01-13T06:38:17.369Z,100132.38
2023-01-13T06:39:38.590Z,100136.81
2023-01-13T06:41:01.119Z,100130.94
2023-01-13T06:42:40.113Z,100125.81
2023-01-13T06:44:00.400Z,100128.56
2023-01-13T06:45:22.697Z,100136.66
2023-01-13T06:46:43.993Z,100142.03
2023-01-13T06:48:04.759Z,100134.38
2023-01-13T06:49:26.217Z,100148.44
2023-01-13T06:50:47.488Z,100132.56
2023-01-13T06:52:07.770Z,100124.75
2023-01-13T06:53:29.197Z,100130.03
2023-01-13T06:54:49.209Z,100133.66
2023-01-13T06:56:11.780Z,100127.66
2023-01-13T06:57:31.957Z,100128.63
2023-01-13T06:58:53.181Z,100133.09
2023-01-13T07:00:15.815Z,100137.53
2023-01-13T07:01:37.050Z,100123.59
2023-01-13T07:03:07.340Z,100128.91
2023-01-13T07:04:28.609Z,100135.13
2023-01-13T07:05:54.695Z,100139.72
2023-01-13T07:07:15.741Z,100139.72
2023-01-13T07:08:37.192Z,100148.63
2023-01-13T07:09:57.254Z,100146.81
2023-01-13T07:11:20.061Z,100146.94
2023-01-13T07:12:59.498Z,100141.63
2023-01-13T07:14:38.481Z,100151.38
2023-01-13T07:16:01.789Z,100145.28
2023-01-13T07:17:25.078Z,100135.75
2023-01-13T07:18:46.306Z,100132.41
2023-01-13T07:20:08.110Z,100141.19
2023-01-13T07:21:29.423Z,100129.88
2023-01-13T07:22:54.552Z,100143.09
2023-01-13T07:24:15.892Z,100137.13
2023-01-13T07:25:36.941Z,100142.41
2023-01-13T07:26:59.535Z,100142.50
2023-01-13T07:28:20.777Z,100154.94
2023-01-13T07:29:41.762Z,100144.34
2023-01-13T07:31:03.294Z,100151.44
2023-01-13T07:32:27.305Z,100150.44
2023-01-13T07:33:48.959Z,100170.78
2023-01-13T07:35:10.666Z,100163.81
2023-01-13T07:36:31.858Z,100166.44
2023-01-13T07:37:52.138Z,100159.47
2023-01-13T07:42:06.082Z,100158.63
2023-01-13T07:43:34.742Z,100164.06
2023-01-13T07:44:55.798Z,100158.78
2023-01-13T07:46:17.184Z,100166.72
2023-01-13T07:47:38.532Z,100169.34
2023-01-13T07:48:59.924Z,100169.09
2023-01-13T07:50:22.162Z,100179.41
2023-01-13T07:51:43.514Z,100173.78
2023-01-13T07:53:05.319Z,100181.56
2023-01-13T07:54:39.790Z,100185.63
2023-01-13T07:56:03.280Z,100179.16
2023-01-13T07:57:24.749Z,100180.69
2023-01-13T07:58:51.044Z,100173.59
2023-01-13T08:00:13.397Z,100177.19
2023-01-13T08:01:34.450Z,100170.94
2023-01-13T08:02:55.674Z,100177.91
2023-01-13T08:04:16.929Z,100177.91
2023-01-13T08:05:38.015Z,100167.31
2023-01-13T08:06:58.968Z,100171.66
2023-01-13T08:08:20.252Z,100175.16
2023-01-13T08:09:41.222Z,100179.59
2023-01-13T08:11:03.475Z,100174.31
2023-01-13T08:12:42.665Z,100188.38
2023-01-13T08:14:15.983Z,100194.34
2023-01-13T08:15:36.369Z,100197.59
2023-01-13T08:16:57.660Z,100190.41
2023-01-13T08:18:21.842Z,100193.63
2023-01-13T08:19:43.028Z,100192.53
2023-01-13T08:21:07.695Z,100200.22
2023-01-13T08:22:30.921Z,100187.56
2023-01-13T08:23:52.235Z,100193.44
2023-01-13T08:25:13.761Z,100202.09
2023-01-13T08:26:35.083Z,100199.19
2023-01-13T08:27:55.757Z,100203.53
2023-01-13T08:29:18.494Z,100205.06
2023-01-13T08:30:39.873Z,100199.66
2023-01-13T08:32:01.255Z,100198.56
2023-01-13T08:33:22.284Z,100208.03
2023-01-13T08:34:23.793Z,100221.16
2023-01-13T08:35:26.552Z,100216.69
2023-01-13T08:36:29.010Z,100215.72
2023-01-13T08:37:30.590Z,100221.75
2023-01-13T08:38:34.377Z,100228.69
2023-01-13T08:39:36.977Z,100221.50
2023-01-13T08:40:39.812Z,100218.59
2023-01-13T08:41:56.636Z,100222.88
2023-01-13T08:42:59.117Z,100222.88
2023-01-13T08:44:01.611Z,100229.03
2023-01-13T08:45:05.706Z,100229.88
2023-01-13T08:46:08.260Z,100216.53
2023-01-13T08:47:09.871Z,100229.59
2023-01-13T08:48:12.441Z,100226.00
2023-01-13T08:49:14.204Z,100223.09
2023-01-13T08:50:19.893Z,100216.00
2023-01-13T08:51:21.436Z,100218.50
2023-01-13T08:52:26.763Z,100231.63
2023-01-13T08:53:29.256Z,100213.19
2023-01-13T08:54:31.751Z,100218.50
2023-01-13T08:55:33.316Z,100222.13
2023-01-13T08:56:35.882Z,100229.09
2023-01-13T08:57:37.517Z,100222.94
2023-01-13T08:58:40.828Z,100234.38
2023-01-13T08:59:43.606Z,100223.78
2023-01-13T09:00:47.473Z,100229.94
2023-01-13T09:01:49.152Z,100232.50
2023-01-13T09:02:51.725Z,100237.78
2023-01-13T09:03:53.678Z,100231.41
2023-01-13T09:04:56.247Z,100228.59
2023-01-13T09:05:58.932Z,100231.97
2023-01-13T09:07:02.160Z,100232.69
2023-01-13T09:08:04.698Z,100234.09
2023-01-13T09:09:07.177Z,100221.56
2023-01-13T09:10:19.679Z,100236.50
2023-01-13T09:11:46.963Z,100233.59
2023-01-13T09:13:07.337Z,100237.91
2023-01-13T09:14:09.933Z,100237.91
2023-01-13T09:15:12.859Z,100234.16
2023-01-13T09:16:16.752Z,100253.53
2023-01-13T09:17:18.459Z,100242.81
2023-01-13T09:18:21.054Z,100237.41
2023-01-13T09:19:22.597Z,100239.09
2023-01-13T09:20:25.099Z,100239.78
2023-01-13T09:21:26.996Z,100229.88
2023-01-13T09:22:29.509Z,100241.31
2023-01-13T09:23:32.024Z,100233.25
2023-01-13T09:24:33.699Z,100244.81
2023-01-13T09:25:37.473Z,100241.31
2023-01-13T09:26:39.191Z,100231.56
2023-01-13T09:27:42.406Z,100235.19
2023-01-13T09:28:43.994Z,100231.84
2023-01-13T09:29:46.607Z,100225.00
2023-01-13T09:30:49.459Z,100245.59
2023-01-13T09:31:52.336Z,100247.41
2023-01-13T09:33:15.234Z,100236.97
2023-01-13T09:34:37.689Z,100230.94
2023-01-13T09:35:39.218Z,100246.81
2023-01-13T09:36:41.703Z,100238.19
2023-01-13T09:37:44.697Z,100239.84
2023-01-13T09:38:48.976Z,100252.28
2023-01-13T09:39:51.976Z,100235.53
2023-01-13T09:40:56.745Z,100239.03
2023-01-13T09:42:32.736Z,100243.22
2023-01-13T09:43:54.561Z,100242.38
2023-01-13T09:45:12.976Z,100249.47
2023-01-13T09:46:38.552Z,100245.13
2023-01-13T09:47:51.355Z,100242.63
2023-01-13T09:48:54.729Z,100244.59
2023-01-13T09:50:04.526Z,100237.72
2023-01-13T09:51:14.969Z,100267.69
2023-01-13T09:52:29.412Z,100264.94
2023-01-13T09:53:38.019Z,100256.97
2023-01-13T09:54:51.035Z,100266.84
2023-01-13T09:55:59.821Z,100268.53
2023-01-13T09:57:11.155Z,100276.47
2023-01-13T09:58:18.444Z,100272.13
2023-01-13T09:59:36.293Z,100272.97
2023-01-13T10:00:47.531Z,100267.84
2023-01-13T10:02:01.076Z,100265.88
2023-01-13T10:03:20.468Z,100273.47
2023-01-13T10:04:24.528Z,100271.25
2023-01-13T10:05:37.375Z,100274.78
2023-01-13T10:06:56.409Z,100277.25
2023-01-13T10:08:05.108Z,100277.19
2023-01-13T10:09:15.839Z,100271.91
2023-01-13T10:10:38.440Z,100264.00
2023-01-13T10:12:11.665Z,100272.28
2023-01-13T10:13:20.005Z,100280.06
2023-01-13T10:14:29.080Z,100277.88
2023-01-13T10:15:46.519Z,100276.06
2023-01-13T10:17:07.320Z,100262.94
2023-01-13T10:18:29.194Z,100277.72
2023-01-13T10:19:43.545Z,100267.00
2023-01-13T10:21:00.335Z,100268.69
2023-01-13T10:22:28.233Z,100271.09
2023-01-13T10:23:52.913Z,100266.19
2023-01-13T10:25:20.415Z,100265.66
2023-01-13T10:26:42.823Z,100272.66
2023-01-13T10:27:57.181Z,100264.00
2023-01-13T10:29:03.220Z,100265.09
2023-01-13T10:30:20.783Z,100256.56
2023-01-13T10:31:33.518Z,100260.19
2023-01-13T10:32:35.983Z,100266.75
2023-01-13T10:33:58.609Z,100261.72
2023-01-13T10:35:11.380Z,100260.28
2023-01-13T10:36:21.496Z,100262.25
2023-01-13T10:37:30.455Z,100276.47
2023-01-13T10:38:45.335Z,100271.16
2023-01-13T10:40:01.729Z,100257.78
2023-01-13T10:41:26.075Z,100265.47
2023-01-13T10:42:29.501Z,100268.69
2023-01-13T10:43:37.154Z,100268.44
2023-01-13T10:44:51.211Z,100276.13
2023-01-13T10:46:00.651Z,100269.56
2023-01-13T10:47:21.521Z,100272.75
2023-01-13T10:48:37.347Z,100274.34
2023-01-13T10:49:43.606Z,100275.03
2023-01-13T10:50:54.378Z,100275.72
2023-01-13T10:52:04.007Z,100285.25
2023-01-13T10:53:18.251Z,100282.44
2023-01-13T10:54:27.595Z,100295.31
2023-01-13T10:55:33.060Z,100299.38
2023-01-13T10:56:46.752Z,100293.66
2023-01-13T10:57:59.062Z,100291.72
2023-01-13T10:59:15.470Z,100294.09
2023-01-13T11:00:31.312Z,100301.50
2023-01-13T11:01:37.712Z,100293.97
2023-01-13T11:02:43.398Z,100297.34
2023-01-13T11:03:47.932Z,100295.38
2023-01-13T11:05:10.319Z,100290.06
2023-01-13T11:06:25.003Z,100298.03
2023-01-13T11:07:32.410Z,100288.38
2023-01-13T11:08:47.582Z,100294.69
2023-01-13T11:10:16.747Z,100297.47
2023-01-13T11:11:43.797Z,100297.47
2023-01-13T11:12:59.750Z,100292.31
2023-01-13T11:14:53.309Z,100295.94
2023-01-13T11:16:11.829Z,100295.47
2023-01-13T11:17:33.667Z,100287.94
2023-01-13T11:19:02.227Z,100290.03
2023-01-13T11:20:21.504Z,100290.31
2023-01-13T11:21:37.521Z,100295.72
2023-01-13T11:22:45.977Z,100297.53
2023-01-13T11:24:02.048Z,100294.06
2023-01-13T11:25:15.273Z,100299.50
2023-01-13T11:26:38.096Z,100291.81
2023-01-13T11:27:48.555Z,100292.94
2023-01-13T11:29:03.439Z,100297.41
2023-01-13T11:30:25.668Z,100291.94
2023-01-13T11:31:42.940Z,100298.09
2023-01-13T11:33:05.564Z,100306.03
2023-01-13T11:34:29.256Z,100321.28
2023-01-13T11:35:41.643Z,100306.31
2023-01-13T11:36:57.066Z,100298.63
2023-01-13T11:38:07.903Z,100304.19
2023-01-13T11:39:21.965Z,100320.38
2023-01-13T11:40:35.191Z,100315.34
2023-01-13T11:42:13.175Z,100317.03
2023-01-13T11:43:34.263Z,100317.03
2023-01-13T11:44:52.759Z,100309.63
2023-01-13T11:46:06.755Z,100312.84
2023-01-13T11:47:11.877Z,100312.59
2023-01-13T11:48:22.073Z,100308.69
2023-01-13T11:49:34.933Z,100311.22
2023-01-13T11:50:54.993Z,100303.13
2023-01-13T11:52:05.092Z,100302.84
2023-01-13T11:53:34.998Z,100311.53
2023-01-13T11:55:08.840Z,100302.56
2023-01-13T11:56:41.538Z,100299.09
2023-01-13T11:58:02.918Z,100304.53
2023-01-13T11:59:34.101Z,100303.69
2023-01-13T12:00:59.709Z,100293.91
2023-01-13T12:02:17.042Z,100285.97
2023-01-13T12:03:26.646Z,100297.53
2023-01-13T12:04:34.427Z,100300.34
2023-01-13T12:05:40.337Z,100296.84
2023-01-13T12:06:53.487Z,100292.22
2023-01-13T12:08:12.265Z,100293.06
2023-01-13T12:09:41.729Z,100287.78
2023-01-13T12:10:54.519Z,100298.38
2023-01-13T12:12:22.809Z,100294.75
2023-01-13T12:13:35.726Z,100298.13
2023-01-13T12:14:51.917Z,100304.25
2023-01-13T12:16:13.450Z,100305.09
2023-01-13T12:17:26.227Z,100301.50
2023-01-13T12:18:52.266Z,100307.75
2023-01-13T12:19:54.842Z,100298.00
2023-01-13T12:21:08.991Z,100297.03
2023-01-13T12:22:17.098Z,100296.03
2023-01-13T12:23:28.052Z,100305.69
2023-01-13T12:24:35.691Z,100296.75
2023-01-13T12:25:52.920Z,100306.53
2023-01-13T12:26:58.950Z,100320.75
2023-01-13T12:28:07.807Z,100319.06
2023-01-13T12:29:14.631Z,100329.97
2023-01-13T12:30:26.566Z,100328.63
2023-01-13T12:31:40.712Z,100334.78
2023-01-13T12:32:47.116Z,100330.16
2023-01-13T12:34:00.127Z,100340.50
2023-01-13T12:35:18.139Z,100357.00
2023-01-13T12:36:28.804Z,100347.91
2023-01-13T12:37:38.397Z,100357.44
2023-01-13T12:38:48.833Z,100362.47
2023-01-13T12:40:12.076Z,100364.06
2023-01-13T12:41:24.521Z,100361.13
2023-01-13T12:42:58.199Z,100361.69
2023-01-13T12:44:18.683Z,100368.81
2023-01-13T12:45:26.813Z,100368.94
2023-01-13T12:46:53.231Z,100370.19
2023-01-13T12:48:06.894Z,100369.63
2023-01-13T12:49:24.263Z,100367.25
2023-01-13T12:50:43.454Z,100367.72
2023-01-13T12:52:09.238Z,100370.25
2023-01-13T12:53:46.665Z,100376.09
2023-01-13T12:55:21.207Z,100384.59
2023-01-13T12:56:44.671Z,100389.44
2023-01-13T12:58:14.486Z,100385.38
2023-01-13T12:59:48.879Z,100392.91
2023-01-13T13:01:06.678Z,100385.22
2023-01-13T13:02:31.038Z,100401.38
2023-01-13T13:04:11.908Z,100390.19
2023-01-13T13:05:42.376Z,100399.97
2023-01-13T13:06:57.280Z,100407.22
2023-01-13T13:08:19.674Z,100392.38
2023-01-13T13:09:36.369Z,100404.94
2023-01-13T13:11:01.322Z,100404.38
2023-01-13T13:13:12.443Z,100405.34
2023-01-13T13:15:04.419Z,100396.78
2023-01-13T13:16:37.602Z,100403.22
2023-01-13T13:18:24.520Z,100403.47
2023-01-13T13:19:45.763Z,100407.94
2023-01-13T13:21:05.108Z,100400.13
2023-01-13T13:22:37.886Z,100405.69
2023-01-13T13:24:04.646Z,100407.59
2023-01-13T13:25:26.243Z,100410.41
2023-01-13T13:26:46.719Z,100405.94
2023-01-13T13:28:09.588Z,100408.72
2023-01-13T13:29:29.751Z,100416.56
2023-01-13T13:30:47.496Z,100422.81
2023-01-13T13:32:19.979Z,100410.66
2023-01-13T13:34:05.042Z,100414.16
2023-01-13T13:35:43.726Z,100423.06
2023-01-13T13:37:10.789Z,100418.72
2023-01-13T13:38:58.817Z,100423.19
2023-01-13T13:40:30.262Z,100425.97
2023-01-13T13:42:03.667Z,100419.69
2023-01-13T13:43:34.358Z,100430.28
2023-01-13T13:45:08.211Z,100431.13
2023-01-13T13:46:46.745Z,100431.28
2023-01-13T13:48:00.125Z,100434.06
2023-01-13T13:49:03.384Z,100444.53
2023-01-13T13:50:20.191Z,100434.06
2023-01-13T13:51:40.632Z,100431.41
2023-01-13T13:52:59.720Z,100437.69
2023-01-13T13:54:14.478Z,100436.84
2023-01-13T13:55:27.180Z,100437.69
2023-01-13T13:56:44.223Z,100430.56